Time;durP1;ratioP1;P1;durP2;ratioP2;P2;SDS_P1;SDS_P2;PMS_P1;PMS_P2;Temp;Humidity;BMP_temperature;BMP_pressure;BME280_temperature;BME280_humidity;BME280_pressure;Samples;Min_cycle;Max_cycle;Signal;HPM_P1;HPM_P2
2022/12/05 00:04:54;;;;;;;21.73;14.83;;;;;7.50;98725.00;;;;16699734;28;20480;-66
2022/12/05 00:12:57;;;;;;;19.90;13.80;;;;;7.60;98744.00;;;;16691024;28;20697;-66
2022/12/05 00:21:01;;;;;;;19.70;14.80;;;;;7.90;98738.00;;;;16680796;28;20276;-67
2022/12/05 00:29:03;;;;;;;19.87;13.73;;;;;8.00;98740.00;;;;16696663;28;20252;-67
2022/12/05 00:37:07;;;;;;;17.67;14.73;;;;;7.80;98735.00;;;;16683206;28;20287;-66
2022/12/05 00:45:11;;;;;;;16.27;12.70;;;;;7.90;98747.00;;;;16663100;28;20206;-66
2022/12/05 00:53:14;;;;;;;18.87;12.20;;;;;7.90;98750.00;;;;16680055;28;20648;-66
2022/12/05 01:01:21;;;;;;;18.40;13.33;;;;;7.80;98757.00;;;;16685666;28;20217;-66
2022/12/05 01:09:25;;;;;;;17.53;12.47;;;;;7.80;98778.00;;;;16679372;28;20312;-66
2022/12/05 01:17:27;;;;;;;21.27;14.00;;;;;7.60;98805.00;;;;16673138;28;20592;-65
2022/12/05 01:25:31;;;;;;;16.20;12.40;;;;;7.70;98791.00;;;;16686243;28;20196;-65
2022/12/05 01:33:34;;;;;;;21.70;12.67;;;;;7.90;98807.00;;;;16689036;28;20236;-65
2022/12/05 01:41:41;;;;;;;16.37;11.50;;;;;7.90;98795.00;;;;16694351;28;20247;-65
2022/12/05 01:49:43;;;;;;;18.33;12.27;;;;;7.80;98804.00;;;;16689611;28;20240;-66
2022/12/05 01:57:48;;;;;;;16.77;11.27;;;;;7.70;98811.00;;;;16687226;28;20371;-66
2022/12/05 02:15:28;;;;;;;21.17;12.47;;;;;7.60;98811.00;;;;16512971;28;20238;-66
2022/12/05 02:23:46;;;;;;;20.33;12.50;;;;;7.70;98816.00;;;;16517813;28;20223;-66
2022/12/05 02:31:53;;;;;;;18.13;12.17;;;;;7.60;98845.00;;;;16503817;28;20308;-66
2022/12/05 02:40:00;;;;;;;19.90;12.10;;;;;7.70;98851.00;;;;16520888;28;20215;-66
2022/12/05 02:48:05;;;;;;;19.23;12.23;;;;;7.70;98868.00;;;;16525426;28;20224;-65
2022/12/05 02:56:08;;;;;;;21.20;12.37;;;;;7.80;98879.00;;;;16525603;28;20259;-66
2022/12/05 03:04:12;;;;;;;18.17;12.40;;;;;7.70;98864.00;;;;16517060;28;20317;-66
2022/12/05 03:12:17;;;;;;;19.27;13.87;;;;;8.30;98842.00;;;;16522542;28;20237;-66
2022/12/05 03:20:25;;;;;;;21.77;14.07;;;;;8.20;98838.00;;;;16498970;28;20637;-66
2022/12/05 03:28:32;;;;;;;22.23;13.60;;;;;8.10;98849.00;;;;16517073;28;20263;-66
2022/12/05 03:36:42;;;;;;;20.40;12.70;;;;;8.00;98832.00;;;;16498122;28;20215;-66
2022/12/05 03:44:48;;;;;;;20.80;12.50;;;;;8.00;98841.00;;;;16522580;28;20235;-66
2022/12/05 03:52:57;;;;;;;19.60;13.40;;;;;8.00;98849.00;;;;16521748;28;20587;-66
2022/12/05 04:01:01;;;;;;;22.70;15.10;;;;;8.20;98835.00;;;;16518803;28;20643;-66
2022/12/05 04:09:07;;;;;;;21.00;14.60;;;;;7.90;98833.00;;;;16549128;23;20238;-78
2022/12/05 04:17:13;;;;;;;28.03;13.97;;;;;8.30;98831.00;;;;16582027;28;20226;-78
2022/12/05 04:25:32;;;;;;;23.27;14.77;;;;;8.40;98833.00;;;;16564758;28;20353;-78
2022/12/05 04:33:41;;;;;;;19.13;12.87;;;;;7.90;98858.00;;;;16571381;28;20233;-77
2022/12/05 04:41:47;;;;;;;20.23;13.10;;;;;8.10;98861.00;;;;16581119;28;20818;-77
2022/12/05 04:49:49;;;;;;;19.63;13.13;;;;;8.20;98861.00;;;;16596727;28;20305;-77
2022/12/05 04:58:00;;;;;;;26.07;14.50;;;;;8.30;98875.00;;;;16575998;28;20255;-77
2022/12/05 05:06:03;;;;;;;20.60;12.83;;;;;8.30;98877.00;;;;16545831;28;20358;-77
2022/12/05 05:14:07;;;;;;;19.23;12.70;;;;;7.90;98882.00;;;;16516213;28;20229;-77
2022/12/05 05:22:09;;;;;;;21.13;13.30;;;;;7.90;98897.00;;;;16496439;28;20373;-77
2022/12/05 05:30:14;;;;;;;19.43;13.40;;;;;7.90;98911.00;;;;16514186;28;20254;-77
2022/12/05 05:38:16;;;;;;;18.80;13.17;;;;;8.20;98911.00;;;;16495089;28;20563;-77
2022/12/05 05:46:22;;;;;;;18.83;12.37;;;;;8.00;98926.00;;;;16489782;28;20340;-77
2022/12/05 05:54:24;;;;;;;19.40;13.70;;;;;8.20;98906.00;;;;16529633;28;20215;-77
2022/12/05 06:02:32;;;;;;;16.43;12.20;;;;;8.40;98907.00;;;;16527345;28;20219;-77
2022/12/05 06:10:35;;;;;;;19.60;14.33;;;;;8.50;98923.00;;;;16518042;28;20234;-76
2022/12/05 06:18:39;;;;;;;21.93;14.50;;;;;8.40;98903.00;;;;16532097;28;20228;-76
2022/12/05 06:26:42;;;;;;;17.77;12.23;;;;;8.30;98929.00;;;;16494507;28;20228;-76
2022/12/05 06:34:46;;;;;;;21.97;13.47;;;;;8.10;98963.00;;;;16520310;28;20227;-77
2022/12/05 06:42:48;;;;;;;19.53;12.90;;;;;8.40;98954.00;;;;16502695;28;20215;-77
2022/12/05 06:50:53;;;;;;;18.50;13.53;;;;;8.50;98961.00;;;;16518533;28;20226;-77
2022/12/05 06:58:56;;;;;;;21.80;15.03;;;;;8.10;98958.00;;;;16517284;28;20227;-77
2022/12/05 07:07:00;;;;;;;19.50;13.13;;;;;8.50;98954.00;;;;16523771;28;20639;-77
2022/12/05 07:15:03;;;;;;;23.00;15.00;;;;;8.30;98991.00;;;;16496862;28;20204;-76
2022/12/05 07:23:07;;;;;;;20.60;13.60;;;;;8.30;98994.00;;;;16537055;28;20655;-77
2022/12/05 07:31:16;;;;;;;22.83;14.23;;;;;8.20;99013.00;;;;16496904;28;20299;-76
2022/12/05 07:39:20;;;;;;;21.03;15.13;;;;;8.10;99009.00;;;;16517141;28;20303;-77
2022/12/05 07:47:23;;;;;;;22.57;15.20;;;;;8.50;99002.00;;;;16505356;28;20485;-80
2022/12/05 07:55:27;;;;;;;16.43;12.30;;;;;8.40;99008.00;;;;16494810;28;20214;-78
2022/12/05 08:03:30;;;;;;;18.40;12.63;;;;;8.60;99007.00;;;;16503202;28;20233;-79
2022/12/05 08:11:35;;;;;;;17.00;13.70;;;;;8.90;99011.00;;;;16603319;28;20616;-80
2022/12/05 08:19:37;;;;;;;16.53;13.50;;;;;8.90;99022.00;;;;16563070;28;20225;-78
2022/12/05 08:27:41;;;;;;;21.40;13.47;;;;;8.90;99034.00;;;;16577371;28;20227;-78
2022/12/05 08:35:44;;;;;;;17.33;12.83;;;;;8.90;99038.00;;;;16579045;28;20269;-79
2022/12/05 08:43:47;;;;;;;19.33;12.50;;;;;9.00;99056.00;;;;16582934;28;20734;-79
2022/12/05 08:51:50;;;;;;;20.17;13.33;;;;;8.90;99057.00;;;;16576716;28;20251;-78
2022/12/05 08:59:54;;;;;;;13.30;10.70;;;;;9.30;99041.00;;;;16576259;28;20276;-79
2022/12/05 09:07:58;;;;;;;20.57;13.50;;;;;9.60;99055.00;;;;16577222;28;20780;-79
2022/12/05 09:16:06;;;;;;;19.90;12.17;;;;;9.50;99072.00;;;;16586671;28;20199;-79
2022/12/05 09:24:09;;;;;;;16.10;12.90;;;;;9.20;99075.00;;;;16580113;28;20204;-78
2022/12/05 09:32:13;;;;;;;17.63;12.60;;;;;9.80;99081.00;;;;16579610;28;20312;-79
2022/12/05 09:40:17;;;;;;;18.50;12.60;;;;;9.90;99086.00;;;;16570755;28;20306;-79
2022/12/05 09:48:23;;;;;;;15.27;11.23;;;;;9.80;99092.00;;;;16552998;28;20347;-79
2022/12/05 09:56:28;;;;;;;14.10;10.63;;;;;9.70;99087.00;;;;16569891;28;20377;-78
2022/12/05 10:04:48;;;;;;;21.77;10.73;;;;;9.60;99091.00;;;;16597758;23;20222;-46
2022/12/05 10:13:00;;;;;;;14.77;10.90;;;;;9.90;99086.00;;;;16595681;28;20586;-45
2022/12/05 10:21:10;;;;;;;13.70;11.20;;;;;9.80;99086.00;;;;16597605;28;20212;-46
2022/12/05 10:29:22;;;;;;;11.30;10.10;;;;;9.90;99076.00;;;;16623605;28;20223;-48
2022/12/05 10:37:29;;;;;;;18.50;11.00;;;;;10.50;99064.00;;;;16638821;28;20202;-48
2022/12/05 10:45:32;;;;;;;12.10;10.47;;;;;10.30;99062.00;;;;16609775;28;20223;-47
2022/12/05 10:53:41;;;;;;;13.60;10.87;;;;;10.40;99063.00;;;;16644099;28;20230;-47
2022/12/05 11:01:48;;;;;;;13.27;10.90;;;;;10.80;99061.00;;;;16672255;28;20784;-46
2022/12/05 11:09:52;;;;;;;14.30;10.30;;;;;10.60;99047.00;;;;16680327;28;20892;-46
2022/12/05 11:17:57;;;;;;;14.20;10.03;;;;;11.10;99053.00;;;;16675584;28;20201;-46
2022/12/05 11:26:01;;;;;;;11.13;9.67;;;;;11.00;99040.00;;;;16672730;28;20602;-47
2022/12/05 11:34:16;;;;;;;11.27;9.63;;;;;11.90;99037.00;;;;16707793;28;20740;-46
2022/12/05 11:42:31;;;;;;;11.70;9.30;;;;;12.90;99032.00;;;;16714386;28;20249;-48
2022/12/05 11:50:40;;;;;;;11.40;8.83;;;;;13.00;99015.00;;;;16665804;28;20226;-48
2022/12/05 11:58:55;;;;;;;10.33;8.60;;;;;13.30;99006.00;;;;16668015;28;20202;-49
2022/12/05 12:07:09;;;;;;;4.07;3.57;;;;;11.30;99016.00;;;;16672530;28;20233;-47
2022/12/05 12:15:37;;;;;;;3.03;2.80;;;;;11.10;99018.00;;;;16660145;28;20233;-47
2022/12/05 12:23:48;;;;;;;2.93;2.73;;;;;11.30;99023.00;;;;16672440;28;20297;-47
2022/12/05 12:31:59;;;;;;;3.43;3.17;;;;;12.10;99005.00;;;;16686101;28;20645;-47
2022/12/05 12:40:06;;;;;;;3.57;3.13;;;;;11.90;99017.00;;;;16676275;28;20218;-46
2022/12/05 12:48:24;;;;;;;3.67;3.37;;;;;12.60;99024.00;;;;16677707;28;20300;-48
2022/12/05 12:56:37;;;;;;;12.67;10.83;;;;;11.10;99029.00;;;;16693946;28;20218;-48
2022/12/05 13:04:45;;;;;;;13.70;11.80;;;;;10.10;99027.00;;;;16664354;28;20324;-47
2022/12/05 13:12:48;;;;;;;14.60;11.37;;;;;10.20;99022.00;;;;16663526;28;20223;-47
2022/12/05 13:20:53;;;;;;;15.63;12.53;;;;;10.50;99031.00;;;;16677699;28;20224;-48
2022/12/05 13:28:57;;;;;;;13.87;11.30;;;;;9.90;99025.00;;;;16663567;28;20744;-47
2022/12/05 13:45:30;;;;;;;14.83;12.03;;;;;11.00;99017.00;;;;16674382;28;20653;-48
2022/12/05 13:53:37;;;;;;;13.60;11.50;;;;;10.20;99031.00;;;;16673852;28;20226;-47
2022/12/05 14:01:45;;;;;;;17.13;12.63;;;;;10.10;99042.00;;;;16672310;28;20304;-48
2022/12/05 14:09:54;;;;;;;12.87;11.37;;;;;10.40;99051.00;;;;16672956;28;20229;-48
2022/12/05 14:18:13;;;;;;;16.83;12.57;;;;;9.90;99066.00;;;;16677312;28;20209;-48
2022/12/05 14:26:32;;;;;;;17.37;11.93;;;;;9.80;99061.00;;;;16669929;28;20320;-48
2022/12/05 14:34:37;;;;;;;14.77;11.93;;;;;9.70;99056.00;;;;16676577;28;20361;-49
2022/12/05 14:42:50;;;;;;;12.87;11.07;;;;;9.60;99071.00;;;;16677305;28;20224;-48
2022/12/05 14:50:53;;;;;;;16.80;12.83;;;;;9.50;99077.00;;;;16670645;28;20308;-48
2022/12/05 14:59:03;;;;;;;23.73;14.67;;;;;9.60;99072.00;;;;16682060;28;20321;-49
2022/12/05 15:07:09;;;;;;;17.67;12.40;;;;;9.20;99075.00;;;;16670202;28;20221;-49
2022/12/05 15:15:18;;;;;;;16.90;12.73;;;;;8.90;99078.00;;;;16697680;28;20324;-48
2022/12/05 15:23:41;;;;;;;17.60;13.20;;;;;9.00;99090.00;;;;16699972;28;20740;-48
2022/12/05 15:31:48;;;;;;;20.17;14.53;;;;;9.10;99086.00;;;;16712480;28;20753;-49
2022/12/05 15:39:53;;;;;;;15.30;13.60;;;;;8.50;99098.00;;;;16691940;28;20874;-48
2022/12/05 15:48:10;;;;;;;16.30;13.47;;;;;8.50;99109.00;;;;16693220;28;20687;-48
2022/12/05 15:56:15;;;;;;;16.83;13.47;;;;;8.30;99128.00;;;;16667920;28;20911;-49
2022/12/05 16:04:24;;;;;;;18.13;15.50;;;;;8.20;99130.00;;;;16711700;28;20259;-48
2022/12/05 16:12:31;;;;;;;19.17;14.57;;;;;8.40;99136.00;;;;16701524;28;20791;-48
2022/12/05 16:20:36;;;;;;;20.47;16.63;;;;;8.10;99148.00;;;;16704662;28;20783;-48
2022/12/05 16:28:39;;;;;;;22.17;14.83;;;;;7.90;99158.00;;;;16686120;28;20239;-48
2022/12/05 16:36:48;;;;;;;21.70;17.33;;;;;7.80;99153.00;;;;16684691;28;20232;-47
2022/12/05 16:45:02;;;;;;;22.97;17.03;;;;;8.20;99147.00;;;;16693338;28;20243;-48
2022/12/05 16:53:28;;;;;;;17.10;14.70;;;;;7.90;99161.00;;;;16698480;28;20224;-46
2022/12/05 17:01:30;;;;;;;19.17;14.93;;;;;8.00;99162.00;;;;16687941;28;20245;-49
2022/12/05 17:09:34;;;;;;;22.03;14.60;;;;;7.70;99161.00;;;;16708448;28;20596;-48
2022/12/05 17:17:36;;;;;;;21.97;15.93;;;;;8.20;99150.00;;;;16694335;28;20284;-49
2022/12/05 17:25:43;;;;;;;21.77;16.87;;;;;8.30;99155.00;;;;16688053;28;20227;-49
2022/12/05 17:33:45;;;;;;;21.53;16.13;;;;;7.80;99161.00;;;;16668663;28;20225;-48
2022/12/05 17:41:49;;;;;;;21.03;16.33;;;;;8.10;99164.00;;;;16693309;28;20227;-48
2022/12/05 17:49:52;;;;;;;20.70;17.10;;;;;8.20;99162.00;;;;16694853;28;20234;-48
2022/12/05 17:57:56;;;;;;;22.17;16.77;;;;;8.00;99164.00;;;;16715292;28;20212;-48
2022/12/05 18:05:58;;;;;;;19.97;17.10;;;;;8.20;99146.00;;;;16703423;28;20534;-48
2022/12/05 18:14:02;;;;;;;17.87;15.93;;;;;8.20;99159.00;;;;16693834;28;20220;-48
2022/12/05 18:22:05;;;;;;;20.33;17.73;;;;;8.10;99154.00;;;;16718384;28;20307;-48
2022/12/05 18:30:10;;;;;;;22.57;16.83;;;;;8.70;99161.00;;;;16694376;28;20228;-48
2022/12/05 18:38:13;;;;;;;21.97;14.10;;;;;8.30;99164.00;;;;16701039;28;20217;-48
2022/12/05 18:46:17;;;;;;;17.70;14.33;;;;;8.00;99169.00;;;;16703361;28;20229;-48
2022/12/05 18:54:19;;;;;;;22.07;16.50;;;;;7.70;99173.00;;;;16712967;28;20234;-48
2022/12/05 19:02:24;;;;;;;23.13;14.70;;;;;7.50;99178.00;;;;16708250;28;20287;-48
2022/12/05 19:10:27;;;;;;;34.93;19.50;;;;;7.40;99192.00;;;;16699492;28;20287;-48
2022/12/05 19:18:31;;;;;;;26.50;18.87;;;;;7.40;99193.00;;;;16686412;28;20201;-49
2022/12/05 19:26:35;;;;;;;27.83;18.80;;;;;7.40;99194.00;;;;16703387;28;20836;-48
2022/12/05 19:34:39;;;;;;;23.13;17.40;;;;;7.30;99198.00;;;;16702782;28;20229;-49
2022/12/05 19:42:41;;;;;;;20.20;16.33;;;;;7.00;99199.00;;;;16691475;28;20274;-48
2022/12/05 19:50:51;;;;;;;23.13;17.23;;;;;7.10;99204.00;;;;16697901;28;20232;-47
2022/12/05 19:58:56;;;;;;;26.13;18.50;;;;;7.20;99201.00;;;;16704776;28;20209;-47
2022/12/05 20:07:00;;;;;;;31.37;18.73;;;;;7.20;99213.00;;;;16675842;28;20725;-47
2022/12/05 20:15:02;;;;;;;22.97;18.97;;;;;7.30;99208.00;;;;16696355;28;20315;-49
2022/12/05 20:23:06;;;;;;;19.77;16.50;;;;;7.40;99201.00;;;;16687861;28;20313;-48
2022/12/05 20:31:10;;;;;;;18.77;15.70;;;;;7.30;99210.00;;;;16688599;28;20810;-47
2022/12/05 20:39:23;;;;;;;25.83;16.83;;;;;7.40;99203.00;;;;16887269;27;21345;-47
2022/12/05 20:47:25;;;;;;;23.93;16.87;;;;;8.10;99204.00;;;;16809978;28;20194;-47
2022/12/05 20:55:29;;;;;;;20.50;17.30;;;;;8.20;99201.00;;;;16827231;28;20260;-48
2022/12/05 21:03:32;;;;;;;24.00;17.27;;;;;7.90;99199.00;;;;16812915;28;20219;-49
2022/12/05 21:11:36;;;;;;;20.70;15.93;;;;;7.40;99206.00;;;;16831469;28;20281;-47
2022/12/05 21:19:39;;;;;;;21.10;15.70;;;;;7.60;99197.00;;;;16833098;28;20642;-47
2022/12/05 21:27:43;;;;;;;22.40;17.07;;;;;7.40;99205.00;;;;16833588;28;20215;-49
2022/12/05 21:35:54;;;;;;;22.63;16.67;;;;;7.60;99198.00;;;;16833273;28;20666;-47
2022/12/05 21:43:58;;;;;;;18.10;14.43;;;;;7.40;99188.00;;;;16825650;28;20216;-48
2022/12/05 21:52:00;;;;;;;19.90;16.37;;;;;7.60;99200.00;;;;16787741;28;20309;-48
2022/12/05 22:00:05;;;;;;;20.83;17.43;;;;;7.90;99198.00;;;;16787528;28;20226;-47
2022/12/05 22:08:07;;;;;;;17.70;15.47;;;;;7.80;99205.00;;;;16780197;28;20196;-47
2022/12/05 22:16:12;;;;;;;25.67;19.33;;;;;7.70;99189.00;;;;16787069;28;20242;-48
2022/12/05 22:24:14;;;;;;;29.37;22.40;;;;;7.90;99193.00;;;;16786443;28;20700;-48
2022/12/05 22:32:18;;;;;;;25.50;18.90;;;;;7.90;99192.00;;;;16785383;28;20228;-48
2022/12/05 22:40:21;;;;;;;32.07;26.93;;;;;8.10;99185.00;;;;16784961;28;20362;-47
2022/12/05 22:48:26;;;;;;;20.27;15.20;;;;;7.90;99180.00;;;;16785420;28;20250;-48
2022/12/05 22:56:29;;;;;;;23.57;18.57;;;;;7.70;99170.00;;;;16784468;28;20751;-47
2022/12/05 23:04:33;;;;;;;22.83;17.23;;;;;8.10;99160.00;;;;16777191;28;20315;-48
2022/12/05 23:12:35;;;;;;;24.07;16.63;;;;;7.80;99167.00;;;;16782090;28;20230;-47
2022/12/05 23:20:39;;;;;;;19.13;16.50;;;;;7.40;99153.00;;;;16780050;28;20658;-48
2022/12/05 23:28:41;;;;;;;21.93;17.00;;;;;7.60;99161.00;;;;16780024;28;20367;-48
2022/12/05 23:36:45;;;;;;;22.13;17.03;;;;;7.30;99163.00;;;;16781320;28;20220;-48
2022/12/05 23:44:48;;;;;;;22.83;16.57;;;;;7.20;99165.00;;;;16781016;28;20566;-49
2022/12/05 23:52:51;;;;;;;25.63;18.00;;;;;7.50;99161.00;;;;16780801;28;20345;-48
